sensor_id;sensor_type;location;lat;lon;timestamp;P1;durP1;ratioP1;P2;durP2;ratioP2
45408;SDS011;31162;51.076;3.784;2023-02-15T00:01:54;93.75;;;61.65;;
45408;SDS011;31162;51.076;3.784;2023-02-15T00:04:21;92.85;;;60.88;;
45408;SDS011;31162;51.076;3.784;2023-02-15T00:06:48;91.20;;;60.90;;
45408;SDS011;31162;51.076;3.784;2023-02-15T00:09:14;90.60;;;59.60;;
45408;SDS011;31162;51.076;3.784;2023-02-15T00:11:40;92.68;;;60.53;;
45408;SDS011;31162;51.076;3.784;2023-02-15T00:14:10;91.30;;;58.92;;
45408;SDS011;31162;51.076;3.784;2023-02-15T00:16:38;89.05;;;58.72;;
45408;SDS011;31162;51.076;3.784;2023-02-15T00:19:05;89.03;;;58.72;;
45408;SDS011;31162;51.076;3.784;2023-02-15T00:21:32;88.18;;;58.33;;
45408;SDS011;31162;51.076;3.784;2023-02-15T00:23:59;96.07;;;60.90;;
45408;SDS011;31162;51.076;3.784;2023-02-15T00:26:26;92.30;;;60.45;;
45408;SDS011;31162;51.076;3.784;2023-02-15T00:28:52;84.85;;;56.05;;
45408;SDS011;31162;51.076;3.784;2023-02-15T00:31:18;93.57;;;59.17;;
45408;SDS011;31162;51.076;3.784;2023-02-15T00:33:44;86.40;;;59.33;;
45408;SDS011;31162;51.076;3.784;2023-02-15T00:36:10;88.78;;;58.55;;
45408;SDS011;31162;51.076;3.784;2023-02-15T00:38:36;89.72;;;60.10;;
45408;SDS011;31162;51.076;3.784;2023-02-15T00:41:03;87.55;;;59.60;;
45408;SDS011;31162;51.076;3.784;2023-02-15T00:43:30;90.03;;;59.65;;
45408;SDS011;31162;51.076;3.784;2023-02-15T00:45:57;91.78;;;60.17;;
45408;SDS011;31162;51.076;3.784;2023-02-15T00:48:24;90.15;;;59.55;;
45408;SDS011;31162;51.076;3.784;2023-02-15T00:50:50;92.20;;;62.10;;
45408;SDS011;31162;51.076;3.784;2023-02-15T00:53:18;97.25;;;63.53;;
45408;SDS011;31162;51.076;3.784;2023-02-15T00:55:43;102.43;;;66.97;;
45408;SDS011;31162;51.076;3.784;2023-02-15T00:58:10;95.15;;;63.60;;
45408;SDS011;31162;51.076;3.784;2023-02-15T01:00:36;98.45;;;62.67;;
45408;SDS011;31162;51.076;3.784;2023-02-15T01:03:03;96.82;;;64.22;;
45408;SDS011;31162;51.076;3.784;2023-02-15T01:05:30;97.45;;;63.67;;
45408;SDS011;31162;51.076;3.784;2023-02-15T01:07:56;92.65;;;62.78;;
45408;SDS011;31162;51.076;3.784;2023-02-15T01:10:22;97.82;;;62.10;;
45408;SDS011;31162;51.076;3.784;2023-02-15T01:12:49;96.82;;;64.25;;
45408;SDS011;31162;51.076;3.784;2023-02-15T01:15:16;96.10;;;64.93;;
45408;SDS011;31162;51.076;3.784;2023-02-15T01:17:41;97.18;;;64.38;;
45408;SDS011;31162;51.076;3.784;2023-02-15T01:20:09;99.75;;;64.78;;
45408;SDS011;31162;51.076;3.784;2023-02-15T01:22:35;99.18;;;63.47;;
45408;SDS011;31162;51.076;3.784;2023-02-15T01:25:01;101.82;;;66.85;;
45408;SDS011;31162;51.076;3.784;2023-02-15T01:27:26;102.97;;;64.88;;
45408;SDS011;31162;51.076;3.784;2023-02-15T01:29:55;99.72;;;64.05;;
45408;SDS011;31162;51.076;3.784;2023-02-15T01:32:21;102.03;;;67.13;;
45408;SDS011;31162;51.076;3.784;2023-02-15T01:34:47;101.03;;;64.70;;
45408;SDS011;31162;51.076;3.784;2023-02-15T01:37:12;90.72;;;63.30;;
45408;SDS011;31162;51.076;3.784;2023-02-15T01:39:38;98.97;;;62.38;;
45408;SDS011;31162;51.076;3.784;2023-02-15T01:42:03;94.20;;;61.58;;
45408;SDS011;31162;51.076;3.784;2023-02-15T01:44:49;93.65;;;61.20;;
45408;SDS011;31162;51.076;3.784;2023-02-15T01:47:20;99.10;;;64.60;;
45408;SDS011;31162;51.076;3.784;2023-02-15T01:49:58;92.40;;;62.88;;
45408;SDS011;31162;51.076;3.784;2023-02-15T01:52:37;95.25;;;61.35;;
45408;SDS011;31162;51.076;3.784;2023-02-15T01:55:05;94.50;;;61.63;;
45408;SDS011;31162;51.076;3.784;2023-02-15T01:57:32;94.47;;;59.65;;
45408;SDS011;31162;51.076;3.784;2023-02-15T01:59:59;95.63;;;62.75;;
45408;SDS011;31162;51.076;3.784;2023-02-15T02:02:28;92.90;;;61.33;;
45408;SDS011;31162;51.076;3.784;2023-02-15T02:04:55;106.25;;;65.45;;
45408;SDS011;31162;51.076;3.784;2023-02-15T02:07:31;102.25;;;66.03;;
45408;SDS011;31162;51.076;3.784;2023-02-15T02:10:00;100.85;;;66.65;;
45408;SDS011;31162;51.076;3.784;2023-02-15T02:12:26;101.60;;;65.72;;
45408;SDS011;31162;51.076;3.784;2023-02-15T02:14:52;107.68;;;67.15;;
45408;SDS011;31162;51.076;3.784;2023-02-15T02:17:27;106.97;;;67.65;;
45408;SDS011;31162;51.076;3.784;2023-02-15T02:42:25;103.45;;;66.97;;
45408;SDS011;31162;51.076;3.784;2023-02-15T02:45:09;100.15;;;68.18;;
45408;SDS011;31162;51.076;3.784;2023-02-15T02:48:04;99.88;;;70.85;;
45408;SDS011;31162;51.076;3.784;2023-02-15T02:50:34;97.68;;;69.93;;
45408;SDS011;31162;51.076;3.784;2023-02-15T02:53:00;93.32;;;66.57;;
45408;SDS011;31162;51.076;3.784;2023-02-15T02:58:10;96.35;;;67.45;;
45408;SDS011;31162;51.076;3.784;2023-02-15T03:00:41;106.72;;;70.68;;
45408;SDS011;31162;51.076;3.784;2023-02-15T03:03:18;118.35;;;73.07;;
45408;SDS011;31162;51.076;3.784;2023-02-15T03:05:50;114.82;;;70.85;;
45408;SDS011;31162;51.076;3.784;2023-02-15T03:08:19;125.22;;;73.53;;
45408;SDS011;31162;51.076;3.784;2023-02-15T03:10:48;130.70;;;77.45;;
45408;SDS011;31162;51.076;3.784;2023-02-15T03:13:17;123.00;;;75.70;;
45408;SDS011;31162;51.076;3.784;2023-02-15T03:15:43;155.82;;;79.15;;
45408;SDS011;31162;51.076;3.784;2023-02-15T03:18:30;154.20;;;79.07;;
45408;SDS011;31162;51.076;3.784;2023-02-15T03:23:26;120.82;;;68.13;;
45408;SDS011;31162;51.076;3.784;2023-02-15T03:26:00;113.25;;;69.85;;
45408;SDS011;31162;51.076;3.784;2023-02-15T03:28:36;120.57;;;73.90;;
45408;SDS011;31162;51.076;3.784;2023-02-15T03:31:06;115.45;;;72.43;;
45408;SDS011;31162;51.076;3.784;2023-02-15T03:33:33;113.40;;;68.47;;
45408;SDS011;31162;51.076;3.784;2023-02-15T03:38:36;125.38;;;74.20;;
45408;SDS011;31162;51.076;3.784;2023-02-15T03:41:10;116.78;;;72.50;;
45408;SDS011;31162;51.076;3.784;2023-02-15T03:43:40;119.18;;;74.95;;
45408;SDS011;31162;51.076;3.784;2023-02-15T03:48:44;109.70;;;69.43;;
45408;SDS011;31162;51.076;3.784;2023-02-15T03:51:15;109.25;;;69.80;;
45408;SDS011;31162;51.076;3.784;2023-02-15T03:54:00;107.22;;;68.20;;
45408;SDS011;31162;51.076;3.784;2023-02-15T03:56:30;110.70;;;68.88;;
45408;SDS011;31162;51.076;3.784;2023-02-15T03:58:57;106.22;;;68.28;;
45408;SDS011;31162;51.076;3.784;2023-02-15T04:01:47;105.72;;;68.57;;
45408;SDS011;31162;51.076;3.784;2023-02-15T04:04:41;107.10;;;71.35;;
45408;SDS011;31162;51.076;3.784;2023-02-15T04:07:09;106.47;;;69.03;;
45408;SDS011;31162;51.076;3.784;2023-02-15T04:09:35;103.55;;;69.43;;
45408;SDS011;31162;51.076;3.784;2023-02-15T04:12:19;115.82;;;71.47;;
45408;SDS011;31162;51.076;3.784;2023-02-15T04:14:45;103.90;;;69.75;;
45408;SDS011;31162;51.076;3.784;2023-02-15T04:17:29;112.28;;;73.78;;
45408;SDS011;31162;51.076;3.784;2023-02-15T04:19:55;99.20;;;68.25;;
45408;SDS011;31162;51.076;3.784;2023-02-15T04:22:39;100.25;;;66.90;;
45408;SDS011;31162;51.076;3.784;2023-02-15T04:25:23;103.38;;;68.65;;
45408;SDS011;31162;51.076;3.784;2023-02-15T04:27:50;99.50;;;67.63;;
45408;SDS011;31162;51.076;3.784;2023-02-15T04:30:19;101.22;;;68.90;;
45408;SDS011;31162;51.076;3.784;2023-02-15T04:32:46;95.55;;;70.60;;
45408;SDS011;31162;51.076;3.784;2023-02-15T04:35:12;102.03;;;67.63;;
45408;SDS011;31162;51.076;3.784;2023-02-15T04:37:39;98.05;;;69.53;;
45408;SDS011;31162;51.076;3.784;2023-02-15T04:40:06;102.13;;;69.03;;
45408;SDS011;31162;51.076;3.784;2023-02-15T04:42:35;99.88;;;70.30;;
45408;SDS011;31162;51.076;3.784;2023-02-15T04:45:00;100.03;;;69.50;;
45408;SDS011;31162;51.076;3.784;2023-02-15T04:47:26;100.63;;;71.18;;
45408;SDS011;31162;51.076;3.784;2023-02-15T04:49:52;99.40;;;67.72;;
45408;SDS011;31162;51.076;3.784;2023-02-15T04:52:18;101.65;;;69.07;;
45408;SDS011;31162;51.076;3.784;2023-02-15T04:54:44;103.03;;;70.55;;
45408;SDS011;31162;51.076;3.784;2023-02-15T04:57:10;98.63;;;67.32;;
45408;SDS011;31162;51.076;3.784;2023-02-15T04:59:36;100.95;;;69.22;;
45408;SDS011;31162;51.076;3.784;2023-02-15T05:02:01;98.85;;;67.72;;
45408;SDS011;31162;51.076;3.784;2023-02-15T05:04:28;101.97;;;66.75;;
45408;SDS011;31162;51.076;3.784;2023-02-15T05:06:53;119.80;;;82.57;;
45408;SDS011;31162;51.076;3.784;2023-02-15T05:09:19;101.93;;;69.63;;
45408;SDS011;31162;51.076;3.784;2023-02-15T05:11:45;101.40;;;66.65;;
45408;SDS011;31162;51.076;3.784;2023-02-15T05:14:10;103.18;;;69.85;;
45408;SDS011;31162;51.076;3.784;2023-02-15T05:16:36;102.18;;;68.38;;
45408;SDS011;31162;51.076;3.784;2023-02-15T05:19:02;105.03;;;70.30;;
45408;SDS011;31162;51.076;3.784;2023-02-15T05:21:28;110.78;;;72.43;;
45408;SDS011;31162;51.076;3.784;2023-02-15T05:23:53;103.50;;;71.72;;
45408;SDS011;31162;51.076;3.784;2023-02-15T05:26:20;104.65;;;69.05;;
45408;SDS011;31162;51.076;3.784;2023-02-15T05:29:07;102.30;;;68.00;;
45408;SDS011;31162;51.076;3.784;2023-02-15T05:31:33;105.63;;;70.22;;
45408;SDS011;31162;51.076;3.784;2023-02-15T05:33:59;105.40;;;69.30;;
45408;SDS011;31162;51.076;3.784;2023-02-15T05:36:25;109.70;;;69.47;;
45408;SDS011;31162;51.076;3.784;2023-02-15T05:38:50;108.00;;;74.03;;
45408;SDS011;31162;51.076;3.784;2023-02-15T05:41:16;113.10;;;73.70;;
45408;SDS011;31162;51.076;3.784;2023-02-15T05:43:42;111.57;;;74.50;;
45408;SDS011;31162;51.076;3.784;2023-02-15T05:46:08;108.63;;;70.63;;
45408;SDS011;31162;51.076;3.784;2023-02-15T05:48:34;104.93;;;69.90;;
45408;SDS011;31162;51.076;3.784;2023-02-15T05:51:01;110.00;;;69.85;;
45408;SDS011;31162;51.076;3.784;2023-02-15T05:53:29;109.57;;;70.50;;
45408;SDS011;31162;51.076;3.784;2023-02-15T05:55:55;106.13;;;70.20;;
45408;SDS011;31162;51.076;3.784;2023-02-15T05:58:24;116.85;;;69.55;;
45408;SDS011;31162;51.076;3.784;2023-02-15T06:00:53;110.03;;;68.22;;
45408;SDS011;31162;51.076;3.784;2023-02-15T06:03:19;107.95;;;69.85;;
45408;SDS011;31162;51.076;3.784;2023-02-15T06:05:45;110.70;;;71.60;;
45408;SDS011;31162;51.076;3.784;2023-02-15T06:08:11;118.38;;;71.50;;
45408;SDS011;31162;51.076;3.784;2023-02-15T06:10:37;118.10;;;73.50;;
45408;SDS011;31162;51.076;3.784;2023-02-15T06:13:02;108.53;;;70.97;;
45408;SDS011;31162;51.076;3.784;2023-02-15T06:15:28;116.85;;;72.50;;
45408;SDS011;31162;51.076;3.784;2023-02-15T06:17:54;115.32;;;71.75;;
45408;SDS011;31162;51.076;3.784;2023-02-15T06:20:19;118.40;;;74.93;;
45408;SDS011;31162;51.076;3.784;2023-02-15T06:22:45;114.10;;;72.30;;
45408;SDS011;31162;51.076;3.784;2023-02-15T06:25:11;115.68;;;70.47;;
45408;SDS011;31162;51.076;3.784;2023-02-15T06:27:37;113.25;;;71.30;;
45408;SDS011;31162;51.076;3.784;2023-02-15T06:30:05;114.80;;;71.72;;
45408;SDS011;31162;51.076;3.784;2023-02-15T06:32:31;118.57;;;73.10;;
45408;SDS011;31162;51.076;3.784;2023-02-15T06:34:57;116.05;;;70.38;;
45408;SDS011;31162;51.076;3.784;2023-02-15T06:37:23;118.32;;;73.95;;
45408;SDS011;31162;51.076;3.784;2023-02-15T06:39:48;118.47;;;71.68;;
45408;SDS011;31162;51.076;3.784;2023-02-15T06:42:14;111.35;;;69.70;;
45408;SDS011;31162;51.076;3.784;2023-02-15T06:44:40;110.05;;;70.05;;
45408;SDS011;31162;51.076;3.784;2023-02-15T06:47:05;119.25;;;70.82;;
45408;SDS011;31162;51.076;3.784;2023-02-15T06:49:31;125.35;;;71.25;;
45408;SDS011;31162;51.076;3.784;2023-02-15T06:51:56;117.07;;;69.90;;
45408;SDS011;31162;51.076;3.784;2023-02-15T06:54:22;127.53;;;73.38;;
45408;SDS011;31162;51.076;3.784;2023-02-15T06:56:48;115.15;;;69.55;;
45408;SDS011;31162;51.076;3.784;2023-02-15T06:59:13;112.15;;;72.50;;
45408;SDS011;31162;51.076;3.784;2023-02-15T07:01:39;120.47;;;73.78;;
45408;SDS011;31162;51.076;3.784;2023-02-15T07:04:05;123.50;;;76.03;;
45408;SDS011;31162;51.076;3.784;2023-02-15T07:06:31;127.50;;;75.82;;
45408;SDS011;31162;51.076;3.784;2023-02-15T07:08:58;124.50;;;75.05;;
45408;SDS011;31162;51.076;3.784;2023-02-15T07:11:24;119.78;;;72.15;;
45408;SDS011;31162;51.076;3.784;2023-02-15T07:14:08;122.82;;;71.35;;
45408;SDS011;31162;51.076;3.784;2023-02-15T07:16:33;116.60;;;69.70;;
45408;SDS011;31162;51.076;3.784;2023-02-15T07:18:59;119.60;;;71.38;;
45408;SDS011;31162;51.076;3.784;2023-02-15T07:21:25;118.65;;;69.60;;
45408;SDS011;31162;51.076;3.784;2023-02-15T07:23:50;113.38;;;68.57;;
45408;SDS011;31162;51.076;3.784;2023-02-15T07:26:16;125.05;;;72.13;;
45408;SDS011;31162;51.076;3.784;2023-02-15T07:28:42;129.93;;;73.88;;
45408;SDS011;31162;51.076;3.784;2023-02-15T07:31:07;127.70;;;76.22;;
45408;SDS011;31162;51.076;3.784;2023-02-15T07:33:33;130.02;;;76.93;;
45408;SDS011;31162;51.076;3.784;2023-02-15T07:36:00;116.05;;;71.95;;
45408;SDS011;31162;51.076;3.784;2023-02-15T07:38:35;114.60;;;75.15;;
45408;SDS011;31162;51.076;3.784;2023-02-15T07:41:02;111.10;;;70.38;;
45408;SDS011;31162;51.076;3.784;2023-02-15T07:43:39;109.05;;;69.32;;
45408;SDS011;31162;51.076;3.784;2023-02-15T07:46:10;100.88;;;66.72;;
45408;SDS011;31162;51.076;3.784;2023-02-15T07:48:40;93.65;;;64.18;;
45408;SDS011;31162;51.076;3.784;2023-02-15T07:51:07;90.22;;;60.28;;
45408;SDS011;31162;51.076;3.784;2023-02-15T07:53:33;81.45;;;57.90;;
45408;SDS011;31162;51.076;3.784;2023-02-15T07:56:04;72.45;;;55.28;;
45408;SDS011;31162;51.076;3.784;2023-02-15T07:58:32;72.07;;;52.88;;
45408;SDS011;31162;51.076;3.784;2023-02-15T08:01:17;61.03;;;50.08;;
45408;SDS011;31162;51.076;3.784;2023-02-15T08:03:45;59.80;;;46.78;;
45408;SDS011;31162;51.076;3.784;2023-02-15T08:06:11;61.70;;;46.70;;
45408;SDS011;31162;51.076;3.784;2023-02-15T08:08:38;53.80;;;44.42;;
45408;SDS011;31162;51.076;3.784;2023-02-15T08:14:07;52.38;;;42.83;;
45408;SDS011;31162;51.076;3.784;2023-02-15T08:16:45;51.03;;;43.15;;
45408;SDS011;31162;51.076;3.784;2023-02-15T08:19:19;49.40;;;41.63;;
45408;SDS011;31162;51.076;3.784;2023-02-15T08:21:47;47.50;;;42.38;;
45408;SDS011;31162;51.076;3.784;2023-02-15T08:24:16;48.58;;;43.13;;
45408;SDS011;31162;51.076;3.784;2023-02-15T08:26:43;48.03;;;42.92;;
45408;SDS011;31162;51.076;3.784;2023-02-15T08:29:16;48.53;;;42.38;;
45408;SDS011;31162;51.076;3.784;2023-02-15T08:31:43;50.88;;;43.03;;
45408;SDS011;31162;51.076;3.784;2023-02-15T08:34:10;50.13;;;44.65;;
45408;SDS011;31162;51.076;3.784;2023-02-15T08:36:38;47.45;;;42.35;;
45408;SDS011;31162;51.076;3.784;2023-02-15T08:39:04;49.20;;;42.90;;
45408;SDS011;31162;51.076;3.784;2023-02-15T08:41:32;50.78;;;43.60;;
45408;SDS011;31162;51.076;3.784;2023-02-15T08:44:03;49.55;;;44.28;;
45408;SDS011;31162;51.076;3.784;2023-02-15T08:46:31;48.38;;;43.03;;
45408;SDS011;31162;51.076;3.784;2023-02-15T08:49:02;50.08;;;44.70;;
45408;SDS011;31162;51.076;3.784;2023-02-15T08:51:29;51.33;;;45.72;;
45408;SDS011;31162;51.076;3.784;2023-02-15T08:53:57;49.60;;;44.33;;
45408;SDS011;31162;51.076;3.784;2023-02-15T08:56:27;50.45;;;44.13;;
45408;SDS011;31162;51.076;3.784;2023-02-15T08:58:55;48.80;;;42.40;;
45408;SDS011;31162;51.076;3.784;2023-02-15T09:01:22;47.13;;;41.85;;
45408;SDS011;31162;51.076;3.784;2023-02-15T09:03:50;50.97;;;42.97;;
45408;SDS011;31162;51.076;3.784;2023-02-15T09:06:20;45.78;;;40.60;;
45408;SDS011;31162;51.076;3.784;2023-02-15T09:08:47;47.13;;;40.10;;
45408;SDS011;31162;51.076;3.784;2023-02-15T09:11:24;44.67;;;39.80;;
45408;SDS011;31162;51.076;3.784;2023-02-15T09:13:53;41.80;;;37.25;;
45408;SDS011;31162;51.076;3.784;2023-02-15T09:16:29;47.15;;;41.65;;
45408;SDS011;31162;51.076;3.784;2023-02-15T09:18:58;46.30;;;41.13;;
45408;SDS011;31162;51.076;3.784;2023-02-15T09:21:24;43.72;;;38.40;;
45408;SDS011;31162;51.076;3.784;2023-02-15T09:23:52;42.40;;;37.58;;
45408;SDS011;31162;51.076;3.784;2023-02-15T09:26:21;43.05;;;38.53;;
45408;SDS011;31162;51.076;3.784;2023-02-15T09:28:50;42.65;;;37.97;;
45408;SDS011;31162;51.076;3.784;2023-02-15T09:31:19;41.97;;;37.47;;
45408;SDS011;31162;51.076;3.784;2023-02-15T09:33:47;39.65;;;35.35;;
45408;SDS011;31162;51.076;3.784;2023-02-15T09:36:21;41.50;;;37.10;;
45408;SDS011;31162;51.076;3.784;2023-02-15T09:39:08;42.83;;;35.05;;
45408;SDS011;31162;51.076;3.784;2023-02-15T09:54:32;36.13;;;32.17;;
45408;SDS011;31162;51.076;3.784;2023-02-15T09:57:13;38.30;;;31.80;;
45408;SDS011;31162;51.076;3.784;2023-02-15T10:11:08;37.45;;;30.15;;
45408;SDS011;31162;51.076;3.784;2023-02-15T10:27:37;36.33;;;29.63;;
45408;SDS011;31162;51.076;3.784;2023-02-15T10:30:10;36.90;;;30.63;;
45408;SDS011;31162;51.076;3.784;2023-02-15T10:32:46;35.67;;;30.20;;
45408;SDS011;31162;51.076;3.784;2023-02-15T10:38:04;39.63;;;29.75;;
45408;SDS011;31162;51.076;3.784;2023-02-15T10:58:12;38.30;;;30.13;;
45408;SDS011;31162;51.076;3.784;2023-02-15T11:01:18;35.58;;;30.17;;
45408;SDS011;31162;51.076;3.784;2023-02-15T11:06:50;39.60;;;31.88;;
45408;SDS011;31162;51.076;3.784;2023-02-15T11:09:21;36.78;;;30.88;;
45408;SDS011;31162;51.076;3.784;2023-02-15T11:11:50;40.22;;;31.70;;
45408;SDS011;31162;51.076;3.784;2023-02-15T11:17:09;41.17;;;31.02;;
45408;SDS011;31162;51.076;3.784;2023-02-15T11:19:54;37.13;;;30.73;;
45408;SDS011;31162;51.076;3.784;2023-02-15T11:22:28;37.67;;;30.77;;
45408;SDS011;31162;51.076;3.784;2023-02-15T11:24:57;32.63;;;28.75;;
45408;SDS011;31162;51.076;3.784;2023-02-15T11:27:32;35.75;;;30.75;;
45408;SDS011;31162;51.076;3.784;2023-02-15T11:30:09;34.17;;;29.48;;
45408;SDS011;31162;51.076;3.784;2023-02-15T11:32:47;37.58;;;30.23;;
45408;SDS011;31162;51.076;3.784;2023-02-15T11:38:31;39.58;;;30.40;;
45408;SDS011;31162;51.076;3.784;2023-02-15T11:43:34;34.97;;;30.10;;
45408;SDS011;31162;51.076;3.784;2023-02-15T11:46:21;39.90;;;30.45;;
45408;SDS011;31162;51.076;3.784;2023-02-15T11:48:47;37.72;;;32.50;;
45408;SDS011;31162;51.076;3.784;2023-02-15T11:51:14;37.22;;;30.90;;
45408;SDS011;31162;51.076;3.784;2023-02-15T11:53:43;35.92;;;28.90;;
45408;SDS011;31162;51.076;3.784;2023-02-15T11:56:17;35.92;;;29.35;;
45408;SDS011;31162;51.076;3.784;2023-02-15T11:59:04;35.25;;;29.35;;
45408;SDS011;31162;51.076;3.784;2023-02-15T12:01:36;38.03;;;30.40;;
45408;SDS011;31162;51.076;3.784;2023-02-15T12:07:17;36.83;;;29.83;;
45408;SDS011;31162;51.076;3.784;2023-02-15T12:12:43;39.92;;;30.23;;
45408;SDS011;31162;51.076;3.784;2023-02-15T12:15:10;37.05;;;29.45;;
45408;SDS011;31162;51.076;3.784;2023-02-15T12:22:51;36.97;;;29.85;;
45408;SDS011;31162;51.076;3.784;2023-02-15T12:28:05;38.80;;;30.27;;
45408;SDS011;31162;51.076;3.784;2023-02-15T12:30:50;37.05;;;29.48;;
45408;SDS011;31162;51.076;3.784;2023-02-15T12:33:31;42.45;;;29.92;;
45408;SDS011;31162;51.076;3.784;2023-02-15T12:38:29;38.05;;;30.05;;
45408;SDS011;31162;51.076;3.784;2023-02-15T12:40:56;39.20;;;30.45;;
45408;SDS011;31162;51.076;3.784;2023-02-15T12:43:42;38.72;;;29.80;;
45408;SDS011;31162;51.076;3.784;2023-02-15T12:46:26;38.28;;;30.88;;
45408;SDS011;31162;51.076;3.784;2023-02-15T12:51:47;39.78;;;30.38;;
45408;SDS011;31162;51.076;3.784;2023-02-15T12:54:26;33.72;;;29.02;;
45408;SDS011;31162;51.076;3.784;2023-02-15T12:57:01;40.65;;;31.10;;
45408;SDS011;31162;51.076;3.784;2023-02-15T12:59:47;40.88;;;29.80;;
45408;SDS011;31162;51.076;3.784;2023-02-15T13:02:21;38.80;;;30.25;;
45408;SDS011;31162;51.076;3.784;2023-02-15T13:05:13;40.42;;;28.42;;
45408;SDS011;31162;51.076;3.784;2023-02-15T13:07:48;47.83;;;30.23;;
45408;SDS011;31162;51.076;3.784;2023-02-15T13:13:28;41.33;;;30.17;;
45408;SDS011;31162;51.076;3.784;2023-02-15T13:16:06;36.97;;;29.80;;
45408;SDS011;31162;51.076;3.784;2023-02-15T13:18:45;39.88;;;31.35;;
45408;SDS011;31162;51.076;3.784;2023-02-15T13:21:16;39.03;;;30.48;;
45408;SDS011;31162;51.076;3.784;2023-02-15T13:23:53;38.53;;;28.27;;
45408;SDS011;31162;51.076;3.784;2023-02-15T13:26:23;41.55;;;30.55;;
45408;SDS011;31162;51.076;3.784;2023-02-15T13:28:52;40.58;;;30.10;;
45408;SDS011;31162;51.076;3.784;2023-02-15T13:31:27;39.20;;;29.85;;
45408;SDS011;31162;51.076;3.784;2023-02-15T13:44:01;39.00;;;29.00;;
45408;SDS011;31162;51.076;3.784;2023-02-15T13:49:27;38.53;;;30.23;;
45408;SDS011;31162;51.076;3.784;2023-02-15T14:03:41;36.30;;;31.05;;
45408;SDS011;31162;51.076;3.784;2023-02-15T14:06:24;41.30;;;30.35;;
45408;SDS011;31162;51.076;3.784;2023-02-15T14:09:09;39.17;;;30.27;;
45408;SDS011;31162;51.076;3.784;2023-02-15T14:17:25;39.85;;;30.50;;
45408;SDS011;31162;51.076;3.784;2023-02-15T14:19:59;38.95;;;29.90;;
45408;SDS011;31162;51.076;3.784;2023-02-15T14:25:35;38.28;;;31.38;;
45408;SDS011;31162;51.076;3.784;2023-02-15T14:28:19;41.17;;;31.63;;
45408;SDS011;31162;51.076;3.784;2023-02-15T14:30:55;40.95;;;31.38;;
45408;SDS011;31162;51.076;3.784;2023-02-15T14:33:29;41.53;;;29.90;;
45408;SDS011;31162;51.076;3.784;2023-02-15T14:36:05;39.00;;;30.60;;
45408;SDS011;31162;51.076;3.784;2023-02-15T14:38:37;43.15;;;32.45;;
45408;SDS011;31162;51.076;3.784;2023-02-15T14:41:31;44.45;;;33.25;;
45408;SDS011;31162;51.076;3.784;2023-02-15T14:44:37;38.05;;;31.20;;
45408;SDS011;31162;51.076;3.784;2023-02-15T14:47:11;41.00;;;31.00;;
45408;SDS011;31162;51.076;3.784;2023-02-15T14:49:50;38.25;;;31.58;;
45408;SDS011;31162;51.076;3.784;2023-02-15T14:52:16;36.60;;;30.42;;
45408;SDS011;31162;51.076;3.784;2023-02-15T15:05:18;40.83;;;32.08;;
45408;SDS011;31162;51.076;3.784;2023-02-15T15:07:46;36.40;;;31.15;;
45408;SDS011;31162;51.076;3.784;2023-02-15T15:15:13;41.60;;;31.23;;
45408;SDS011;31162;51.076;3.784;2023-02-15T15:18:03;42.10;;;31.83;;
45408;SDS011;31162;51.076;3.784;2023-02-15T15:23:40;37.58;;;30.23;;
45408;SDS011;31162;51.076;3.784;2023-02-15T15:26:26;36.42;;;30.48;;
45408;SDS011;31162;51.076;3.784;2023-02-15T15:28:54;40.70;;;31.75;;
45408;SDS011;31162;51.076;3.784;2023-02-15T15:31:27;38.28;;;31.50;;
45408;SDS011;31162;51.076;3.784;2023-02-15T15:40:10;38.15;;;30.23;;
45408;SDS011;31162;51.076;3.784;2023-02-15T15:46:17;38.03;;;30.05;;
45408;SDS011;31162;51.076;3.784;2023-02-15T15:49:09;37.72;;;31.23;;
45408;SDS011;31162;51.076;3.784;2023-02-15T15:51:44;38.72;;;30.75;;
45408;SDS011;31162;51.076;3.784;2023-02-15T15:54:15;38.22;;;30.50;;
45408;SDS011;31162;51.076;3.784;2023-02-15T15:56:48;41.60;;;29.92;;
45408;SDS011;31162;51.076;3.784;2023-02-15T15:59:22;38.10;;;31.20;;
45408;SDS011;31162;51.076;3.784;2023-02-15T16:01:51;37.97;;;31.75;;
45408;SDS011;31162;51.076;3.784;2023-02-15T16:04:25;35.53;;;30.25;;
45408;SDS011;31162;51.076;3.784;2023-02-15T16:06:56;36.25;;;30.42;;
45408;SDS011;31162;51.076;3.784;2023-02-15T16:09:26;40.22;;;31.05;;
45408;SDS011;31162;51.076;3.784;2023-02-15T16:11:58;36.42;;;29.20;;
45408;SDS011;31162;51.076;3.784;2023-02-15T16:14:35;38.63;;;29.98;;
45408;SDS011;31162;51.076;3.784;2023-02-15T16:17:03;38.45;;;28.65;;
45408;SDS011;31162;51.076;3.784;2023-02-15T16:19:37;34.40;;;28.75;;
45408;SDS011;31162;51.076;3.784;2023-02-15T16:22:25;40.05;;;31.20;;
45408;SDS011;31162;51.076;3.784;2023-02-15T16:27:33;40.03;;;30.95;;
45408;SDS011;31162;51.076;3.784;2023-02-15T16:33:05;40.40;;;30.77;;
45408;SDS011;31162;51.076;3.784;2023-02-15T16:35:31;38.03;;;31.15;;
45408;SDS011;31162;51.076;3.784;2023-02-15T16:37:57;42.03;;;31.58;;
45408;SDS011;31162;51.076;3.784;2023-02-15T16:42:49;41.25;;;32.38;;
45408;SDS011;31162;51.076;3.784;2023-02-15T16:45:17;41.55;;;31.88;;
45408;SDS011;31162;51.076;3.784;2023-02-15T16:47:46;40.97;;;31.73;;
45408;SDS011;31162;51.076;3.784;2023-02-15T16:50:22;40.45;;;32.85;;
45408;SDS011;31162;51.076;3.784;2023-02-15T16:52:53;39.60;;;32.33;;
45408;SDS011;31162;51.076;3.784;2023-02-15T16:55:21;41.97;;;30.45;;
45408;SDS011;31162;51.076;3.784;2023-02-15T16:57:49;40.85;;;31.15;;
45408;SDS011;31162;51.076;3.784;2023-02-15T17:00:20;43.72;;;32.40;;
45408;SDS011;31162;51.076;3.784;2023-02-15T17:02:55;38.45;;;31.88;;
45408;SDS011;31162;51.076;3.784;2023-02-15T17:05:29;40.63;;;31.95;;
45408;SDS011;31162;51.076;3.784;2023-02-15T17:08:04;44.50;;;32.22;;
45408;SDS011;31162;51.076;3.784;2023-02-15T17:10:38;41.35;;;31.95;;
45408;SDS011;31162;51.076;3.784;2023-02-15T17:13:16;42.05;;;32.35;;
45408;SDS011;31162;51.076;3.784;2023-02-15T17:15:43;41.67;;;32.10;;
45408;SDS011;31162;51.076;3.784;2023-02-15T17:20:59;43.05;;;32.75;;
45408;SDS011;31162;51.076;3.784;2023-02-15T17:23:41;42.20;;;31.48;;
45408;SDS011;31162;51.076;3.784;2023-02-15T17:26:25;45.20;;;32.67;;
45408;SDS011;31162;51.076;3.784;2023-02-15T17:28:55;45.30;;;33.78;;
45408;SDS011;31162;51.076;3.784;2023-02-15T17:31:36;43.53;;;33.17;;
45408;SDS011;31162;51.076;3.784;2023-02-15T17:34:02;43.63;;;33.13;;
45408;SDS011;31162;51.076;3.784;2023-02-15T17:36:30;43.50;;;32.67;;
45408;SDS011;31162;51.076;3.784;2023-02-15T17:41:25;41.47;;;32.28;;
45408;SDS011;31162;51.076;3.784;2023-02-15T17:43:52;43.00;;;33.13;;
45408;SDS011;31162;51.076;3.784;2023-02-15T17:46:18;43.28;;;34.45;;
45408;SDS011;31162;51.076;3.784;2023-02-15T17:48:48;51.13;;;39.97;;
45408;SDS011;31162;51.076;3.784;2023-02-15T17:51:18;44.92;;;35.20;;
45408;SDS011;31162;51.076;3.784;2023-02-15T17:53:45;41.13;;;33.88;;
45408;SDS011;31162;51.076;3.784;2023-02-15T17:56:29;42.22;;;34.22;;
45408;SDS011;31162;51.076;3.784;2023-02-15T17:58:55;44.85;;;37.42;;
45408;SDS011;31162;51.076;3.784;2023-02-15T18:01:21;43.97;;;35.70;;